• Join FlightAware (Why Join?)
  • Login
  • US Flag 
04:00PM EDT


 

Airport Tracker/Info


-or-


 

Live Flight TrackerFlight Track Log ✈ N922QS ✈ 06-Nov-2013 ✈ KTEB - KBUR

Flight Track Log - Related Links

Times and Time Zones

All times are in EST time to prevent confusion due to time zone crossing. See the N922QS flight status page for this flight to view local times or setup timezone preferences in your user account.

Time Position Orientation Groundspeed Altitude Reporting Facility
EST Latitude Longitude Course Direction KTS MPH feet Rate Location/Type
10:06AM 40.8167 -74.1167 270° West 199 229 1,500  Level New York TRACON
10:07AM 40.8167 -74.1833 270° West 210 242 4,000 3,240 Climbing New York TRACON
10:08AM 40.8167 -74.2667 270° West 250 288 7,700 3,000 Climbing New York TRACON
10:10AM 40.8147 -74.4481 269° West 285 328 12,400 2,400 Climbing New York Center
10:11AM 40.8128 -74.5794 269° West 328 377 14,400 1,860 Climbing New York Center
10:12AM 40.8131 -74.6972 270° West 349 402 16,200 1,860 Climbing New York Center
10:13AM 40.8083 -74.8369 267° West 354 407 18,200 1,800 Climbing New York Center
10:14AM 40.8083 -74.9547 270° West 354 407 19,900 1,800 Climbing New York Center
10:15AM 40.8058 -75.0833 269° West 349 402 21,800 1,800 Climbing New York Center
10:16AM 40.7928 -75.2114 262° West 349 402 23,600 1,740 Climbing New York Center
10:17AM 40.7683 -75.3550 257° West 356 410 25,300 1,440 Climbing New York Center
10:18AM 40.7369 -75.4681 250° West 362 417 26,500 1,440 Climbing New York Center
10:19AM 40.6906 -75.5881 243° Southwest 367 422 28,200 1,620 Climbing New York Center
10:20AM 40.6458 -75.7106 244° Southwest 372 428 29,800 1,500 Climbing New York Center
10:21AM 40.6011 -75.8278 243° Southwest 372 428 31,300 1,560 Climbing New York Center
10:22AM 40.5456 -75.9603 241° Southwest 372 428 33,000 1,500 Climbing New York Center
10:23AM 40.5006 -76.0797 244° Southwest 377 434 34,300 1,260 Climbing New York Center
10:24AM 40.4553 -76.2017 244° Southwest 377 434 35,600 1,260 Climbing New York Center
10:25AM 40.4103 -76.3236 244° Southwest 377 434 36,900 1,080 Climbing New York Center
10:26AM 40.3606 -76.4475 242° Southwest 377 434 37,800 840 Climbing New York Center
10:27AM 40.3292 -76.5783 253° West 377 434 38,600 660 Climbing New York Center
10:28AM 40.3078 -76.7156 258° West 377 434 39,200 600 Climbing New York Center
10:29AM 40.2864 -76.8469 258° West 377 434 39,800 600 Climbing New York Center
10:30AM 40.2853 -76.9911 269° West 384 442 40,400 600 Climbing New York Center
10:31AM 40.2881 -77.1303 272° West 389 448 41,000 600 Climbing New York Center
10:32AM 40.2931 -77.2722 273° West 389 448 41,600 540 Climbing New York Center
10:34AM 40.3025 -77.5825 272° West 386 444 42,900 360 Climbing Cleveland Center
10:35AM 40.3075 -77.7511 272° West 388 447 43,000  Climbing Cleveland Center
10:36AM 40.3100 -77.8947 271° West 395 455 43,000  Level Cleveland Center
10:38AM 40.3133 -78.0397 272° West 400 460 43,000  Level Cleveland Center
10:39AM 40.3169 -78.1847 272° West 400 460 43,000  Level Cleveland Center
10:40AM 40.3197 -78.3308 271° West 401 461 43,000 240 Level Cleveland Center
10:41AM 40.3228 -78.5056 271° West 401 461 43,500 240 Climbing Cleveland Center
10:42AM 40.3256 -78.6483 272° West 395 455 43,500  Level Cleveland Center
10:43AM 40.3275 -78.7911 271° West 394 453 43,600 180 Climbing Cleveland Center
10:44AM 40.3292 -78.9336 271° West 393 452 43,900 120 Climbing Cleveland Center
10:45AM 40.3314 -79.0758 271° West 393 452 43,900  Level Cleveland Center
10:46AM 40.3333 -79.2181 271° West 392 451 43,900  Level Cleveland Center
10:47AM 40.3356 -79.3808 271° West 397 457 44,000  Climbing Cleveland Center
10:48AM 40.3369 -79.5228 271° West 393 452 44,000  Level Cleveland Center
10:49AM 40.3378 -79.6653 270° West 392 451 44,000  Level Cleveland Center
10:50AM 40.3386 -79.8072 270° West 391 450 44,000  Level Cleveland Center
10:51AM 40.3392 -79.9492 270° West 389 448 44,000  Level Cleveland Center
10:52AM 40.3397 -80.0975 270° West 389 448 44,000  Level Cleveland Center
10:53AM 40.3422 -80.2669 271° West 390 449 44,000  Level Cleveland Center
10:54AM 40.3417 -80.4150 270° West 392 451 44,000  Level Cleveland Center
10:55AM 40.3414 -80.5564 270° West 390 449 44,000  Level Cleveland Center
10:56AM 40.3414 -80.6992 270° West 393 452 44,000  Level Cleveland Center
10:57AM 40.3406 -80.8417 270° West 391 450 44,000  Level Cleveland Center
10:58AM 40.3400 -80.9822 270° West 388 447 44,000  Level Cleveland Center
10:59AM 40.3383 -81.1264 269° West 396 456 44,000  Level Cleveland Center
11:00AM 40.3378 -81.2678 270° West 391 450 44,000  Level Cleveland Center
11:01AM 40.3356 -81.4025 269° West 389 448 44,000  Level Indianapolis Center
11:02AM 40.3353 -81.5444 270° West 386 444 44,000  Level Indianapolis Center
11:03AM 40.3336 -81.6889 269° West 390 449 44,000  Level Indianapolis Center
11:04AM 40.3317 -81.8319 269° West 389 448 44,000  Level Indianapolis Center
11:05AM 40.3311 -81.9750 270° West 389 448 44,000  Level Indianapolis Center
11:06AM 40.3292 -82.1206 269° West 392 451 44,000  Level Indianapolis Center
11:07AM 40.3272 -82.2650 269° West 392 451 44,000  Level Indianapolis Center
11:08AM 40.3247 -82.4078 269° West 390 449 44,000  Level Indianapolis Center
11:09AM 40.3219 -82.5531 269° West 393 452 44,000  Level Indianapolis Center
11:10AM 40.3194 -82.6972 269° West 392 451 44,000  Level Indianapolis Center
11:11AM 40.3167 -82.8414 269° West 393 452 44,000  Level Indianapolis Center
11:12AM 40.3136 -83.0114 269° West 393 452 44,000  Level Indianapolis Center
11:13AM 40.3094 -83.1525 268° West 391 450 44,000  Level Indianapolis Center
11:14AM 40.3069 -83.2922 269° West 388 447 44,000  Level Indianapolis Center
11:15AM 40.3033 -83.4331 268° West 390 449 44,000  Level Indianapolis Center
11:16AM 40.2997 -83.5722 268° West 387 445 44,000  Level Indianapolis Center
11:17AM 40.2969 -83.7125 269° West 388 447 44,000  Level Indianapolis Center
11:19AM 40.2911 -83.8811 267° West 390 449 44,000  Level Indianapolis Center
11:20AM 40.2878 -84.0217 268° West 388 447 44,000  Level Indianapolis Center
11:21AM 40.2836 -84.1628 268° West 390 449 44,000  Level Indianapolis Center
11:22AM 40.2781 -84.3033 267° West 389 448 44,000  Level Indianapolis Center
11:23AM 40.2747 -84.4442 268° West 389 448 44,000  Level Indianapolis Center
11:24AM 40.2678 -84.5861 266° West 391 450 44,000  Level Indianapolis Center
11:25AM 40.2639 -84.7561 268° West 389 448 44,000  Level Indianapolis Center
11:26AM 40.2572 -84.9014 267° West 393 452 44,000  Level Indianapolis Center
11:27AM 40.2508 -85.0442 267° West 395 455 44,000  Level Indianapolis Center
11:28AM 40.2453 -85.1864 267° West 393 452 44,000  Level Indianapolis Center
11:29AM 40.2394 -85.3300 267° West 396 456 44,000  Level Indianapolis Center
11:30AM 40.2389 -85.4722 270° West 394 453 44,000  Level Indianapolis Center
11:31AM 40.2453 -85.6450 273° West 397 457 44,000  Level Indianapolis Center
11:32AM 40.2508 -85.7878 273° West 397 457 44,000  Level Indianapolis Center
11:33AM 40.2556 -85.9297 273° West 396 456 44,000  Level Indianapolis Center
11:34AM 40.2592 -86.0725 272° West 397 457 44,000  Level Indianapolis Center
11:35AM 40.2628 -86.1556 273° West 394 453 44,000  Level Chicago Center
11:36AM 40.2669 -86.2981 272° West 395 455 44,000  Level Chicago Center
11:37AM 40.2717 -86.4686 272° West 395 455 44,000  Level Chicago Center
11:38AM 40.2747 -86.6133 272° West 398 458 44,000  Level Chicago Center
11:39AM 40.2772 -86.7567 271° West 399 459 44,000  Level Chicago Center
11:40AM 40.2814 -86.9008 272° West 398 458 44,000  Level Chicago Center
11:41AM 40.2844 -87.0450 272° West 398 458 44,000  Level Chicago Center
11:42AM 40.2867 -87.1889 271° West 399 459 44,000  Level Chicago Center
11:43AM 40.2903 -87.3639 272° West 402 463 44,000  Level Chicago Center
11:44AM 40.2928 -87.5125 271° West 402 463 44,000  Level Chicago Center
11:45AM 40.2931 -87.6583 270° West 400 460 44,000  Level Chicago Center
11:46AM 40.2914 -87.8044 269° West 402 463 44,000  Level Chicago Center
11:47AM 40.2894 -87.9481 269° West 398 458 44,000  Level Chicago Center
11:48AM 40.2878 -88.0922 269° West 397 457 44,000  Level Chicago Center
11:49AM 40.2858 -88.2361 269° West 396 456 44,000  Level Chicago Center
11:50AM 40.2831 -88.4081 269° West 395 455 44,000  Level Chicago Center
11:51AM 40.2806 -88.5353 269° West 396 456 44,000  Level Chicago Center
11:52AM 40.2783 -88.6789 269° West 395 455 44,000  Level Chicago Center
11:53AM 40.2736 -88.8511 268° West 397 457 44,000  Level Chicago Center
11:54AM 40.2714 -88.9944 269° West 394 453 44,000  Level Chicago Center
11:55AM 40.2683 -89.1392 268° West 397 457 44,000  Level Chicago Center
11:56AM 40.2639 -89.2847 268° West 399 459 44,000  Level Chicago Center
11:57AM 40.2600 -89.4292 268° West 399 459 44,000  Level Chicago Center
11:58AM 40.2558 -89.5750 268° West 400 460 44,000  Level Chicago Center
11:59AM 40.2539 -89.6631 268° West 396 456 44,000  Level Kansas City Center
12:00PM 40.2492 -89.8111 268° West 400 460 44,000  Level Kansas City Center
12:01PM 40.2447 -89.9592 268° West 404 465 44,000  Level Kansas City Center
12:02PM 40.2403 -90.1364 268° West 403 464 44,000  Level Kansas City Center
12:03PM 40.2344 -90.2856 267° West 406 467 44,000  Level Kansas City Center
12:04PM 40.2300 -90.4344 268° West 407 468 44,000  Level Kansas City Center
12:05PM 40.2250 -90.5836 268° West 409 471 44,000  Level Kansas City Center
12:06PM 40.2194 -90.7325 267° West 409 471 44,000  Level Kansas City Center
12:07PM 40.2133 -90.8814 267° West 410 472 44,000  Level Kansas City Center
12:08PM 40.2069 -91.0461 267° West 411 473 44,000  Level Kansas City Center
12:09PM 40.2008 -91.1947 267° West 412 474 44,000  Level Kansas City Center
12:10PM 40.1944 -91.3442 267° West 413 475 44,000  Level Kansas City Center
12:11PM 40.1881 -91.4928 267° West 413 475 44,000  Level Kansas City Center
12:12PM 40.1800 -91.6708 267° West 412 474 44,000  Level Kansas City Center
12:13PM 40.1728 -91.8200 266° West 413 475 44,000  Level Kansas City Center
12:14PM 40.1667 -91.9697 267° West 414 476 44,000  Level Kansas City Center
12:15PM 40.1589 -92.1194 266° West 414 476 44,000  Level Kansas City Center
12:16PM 40.1514 -92.2694 266° West 414 476 44,000  Level Kansas City Center
12:17PM 40.1419 -92.4433 266° West 414 476 44,000  Level Kansas City Center
12:19PM 40.1333 -92.5889 266° West 418 481 44,000  Level Kansas City Center
12:20PM 40.1008 -92.7489 255° West 412 474 44,000  Level Kansas City Center
12:21PM 40.0708 -92.8861 254° West 410 472 44,000  Level Kansas City Center
12:22PM 40.0369 -93.0347 253° West 410 472 44,000  Level Kansas City Center
12:23PM 40.0058 -93.1764 254° West 409 471 44,000  Level Kansas City Center
12:24PM 39.9753 -93.3178 254° West 408 470 44,000  Level Kansas City Center
12:25PM 39.9361 -93.4861 253° West 406 467 44,000  Level Kansas City Center
12:26PM 39.9069 -93.6278 255° West 407 468 44,000  Level Kansas City Center
12:27PM 39.8756 -93.7675 254° West 407 468 44,000  Level Kansas City Center
12:28PM 39.8428 -93.9072 253° West 406 467 44,000  Level Kansas City Center
12:29PM 39.8250 -94.0514 261° West 408 470 44,000  Level Kansas City Center
12:30PM 39.8203 -94.2311 268° West 412 474 44,000  Level Kansas City Center
12:31PM 39.8142 -94.3728 267° West 413 475 44,000  Level Kansas City Center
12:32PM 39.8097 -94.5406 268° West 417 480 44,000  Level Kansas City Center
12:33PM 39.8042 -94.6822 267° West 412 474 44,000  Level Kansas City Center
12:34PM 39.7872 -94.8206 261° West 408 470 44,000  Level Kansas City Center
12:35PM 39.7425 -94.9717 249° West 403 464 44,000  Level Kansas City Center
12:36PM 39.7039 -95.1033 249° West 407 468 44,000  Level Kansas City Center
12:37PM 39.6586 -95.2536 249° West 404 465 44,000  Level Kansas City Center
12:38PM 39.6206 -95.3836 249° West 406 467 44,000  Level Kansas City Center
12:39PM 39.5750 -95.5367 249° West 409 471 44,000  Level Kansas City Center
12:40PM 39.5350 -95.6669 248° West 411 473 44,000  Level Kansas City Center
12:41PM 39.4892 -95.8183 249° West 407 468 44,000  Level Kansas City Center
12:42PM 39.4500 -95.9483 249° West 407 468 44,000  Level Kansas City Center
12:43PM 39.4033 -96.1017 249° West 410 472 44,000  Level Kansas City Center
12:44PM 39.3583 -96.2481 248° West 415 478 44,000  Level Kansas City Center
12:45PM 39.3144 -96.3853 248° West 414 476 44,000  Level Kansas City Center
12:46PM 39.2736 -96.5214 249° West 418 481 44,000  Level Kansas City Center
12:47PM 39.2244 -96.6761 248° West 417 480 44,000  Level Kansas City Center
12:49PM 39.1828 -96.8100 248° West 420 483 44,000  Level Kansas City Center
12:50PM 39.1333 -96.9661 248° West 421 484 44,000  Level Kansas City Center
12:51PM 39.0922 -97.1000 248° West 422 486 44,000  Level Kansas City Center
12:52PM 39.0422 -97.2581 248° West 425 489 44,000  Level Kansas City Center
12:53PM 39.0003 -97.3908 248° West 420 483 44,000  Level Kansas City Center
12:54PM 38.9500 -97.5436 247° West 416 479 44,000  Level Kansas City Center
12:55PM 38.9178 -97.6792 253° West 416 479 44,000  Level Kansas City Center
12:56PM 38.8983 -97.8436 261° West 420 483 44,000  Level Kansas City Center
12:57PM 38.8806 -97.9936 261° West 424 488 44,000  Level Kansas City Center
12:58PM 38.8614 -98.1417 261° West 423 487 44,000  Level Kansas City Center
12:59PM 38.8431 -98.2914 261° West 426 490 44,000  Level Kansas City Center
01:00PM 38.8239 -98.4417 261° West 428 493 44,000  Level Kansas City Center
01:01PM 38.8039 -98.5928 260° West 430 495 44,000  Level Kansas City Center
01:02PM 38.7800 -98.7750 261° West 434 499 44,000  Level Kansas City Center
01:03PM 38.7600 -98.9278 261° West 437 503 44,000  Level Kansas City Center
01:04PM 38.7397 -99.0819 260° West 439 505 44,000  Level Kansas City Center
01:05PM 38.7203 -99.2361 261° West 441 507 44,000  Level Kansas City Center
01:06PM 38.6983 -99.3908 260° West 441 507 44,000  Level Kansas City Center
01:07PM 38.6728 -99.5692 260° West 443 510 44,000  Level Kansas City Center
01:08PM 38.6536 -99.7183 261° West 444 511 44,000  Level Kansas City Center
01:09PM 38.6281 -99.8906 259° West 442 509 44,000  Level Kansas City Center
01:10PM 38.6083 -100.0394 260° West 444 511 44,000  Level Kansas City Center
01:11PM 38.5825 -100.2100 259° West 441 507 44,000  Level Kansas City Center
01:12PM 38.5611 -100.3564 259° West 441 507 44,000  Level Kansas City Center
01:13PM 38.5364 -100.5269 260° West 439 505 44,000  Level Kansas City Center
01:14PM 38.5147 -100.6706 259° West 435 501 44,000  Level Kansas City Center
01:15PM 38.4897 -100.8372 259° West 431 496 44,000  Level Kansas City Center
01:16PM 38.4722 -100.9547 259° West 429 494 44,000  Level Denver Center
01:17PM 38.4514 -101.0967 259° West 427 491 44,000  Level Denver Center
01:18PM 38.4258 -101.2592 259° West 421 484 44,000  Level Denver Center
01:19PM 38.4036 -101.4011 259° West 427 491 44,000  Level Denver Center
01:20PM 38.3778 -101.5642 259° West 424 488 44,000  Level Denver Center
01:21PM 38.3558 -101.7067 259° West 429 494 44,000  Level Denver Center
01:22PM 38.3289 -101.8747 258° West 433 498 44,000  Level Denver Center
01:23PM 38.3056 -102.0203 258° West 438 504 44,000  Level Denver Center
01:24PM 38.2794 -102.1900 259° West 439 505 44,000  Level Denver Center
01:26PM 38.2542 -102.3364 258° West 440 506 44,000  Level Denver Center
01:27PM 38.2272 -102.5033 258° West 434 499 44,000  Level Denver Center
01:28PM 38.2031 -102.6478 258° West 435 501 44,000  Level Denver Center
01:29PM 38.1647 -102.8106 253° West 432 497 44,000  Level Denver Center
01:30PM 38.1294 -102.9472 252° West 430 495 44,000  Level Denver Center
01:31PM 38.0875 -103.1094 252° West 433 498 44,000  Level Denver Center
01:32PM 38.0494 -103.2586 252° West 435 501 44,000  Level Denver Center
01:33PM 38.0131 -103.3994 252° West 440 506 44,000  Level Denver Center
01:34PM 37.9697 -103.5642 252° West 443 510 44,000  Level Denver Center
01:35PM 37.9308 -103.7083 251° West 451 519 44,000  Level Denver Center
01:36PM 37.8867 -103.8764 252° West 452 520 44,000  Level Denver Center
01:37PM 37.8483 -104.0214 252° West 457 526 44,000  Level Denver Center
01:38PM 37.8019 -104.1906 251° West 461 531 44,000  Level Denver Center
01:39PM 37.7633 -104.3350 251° West 458 527 44,000  Level Denver Center
01:40PM 37.7178 -104.5006 251° West 451 519 44,000  Level Denver Center
01:41PM 37.6792 -104.6428 251° West 449 517 44,000  Level Denver Center
01:42PM 37.6336 -104.8083 251° West 448 516 44,000  Level Denver Center
01:43PM 37.5928 -104.9514 250° West 453 521 44,000  Level Denver Center
01:44PM 37.5464 -105.1169 251° West 450 518 44,000  Level Denver Center
01:45PM 37.5094 -105.2528 251° West 447 514 44,000  Level Denver Center
01:46PM 37.4619 -105.4197 250° West 453 521 44,000  Level Denver Center
01:47PM 37.4214 -105.5608 250° West 450 518 44,000  Level Denver Center
01:48PM 37.3733 -105.7278 250° West 453 521 44,000  Level Denver Center
01:49PM 37.3344 -105.8717 251° West 455 524 44,000  Level Denver Center
01:50PM 37.2925 -106.0408 253° West 455 524 44,000  Level Denver Center
01:51PM 37.2556 -106.1850 252° West 453 521 44,000  Level Denver Center
01:52PM 37.2106 -106.3533 251° West 456 525 44,000  Level Denver Center
01:53PM 37.1728 -106.4983 252° West 457 526 44,000  Level Denver Center
01:54PM 37.1289 -106.6681 252° West 458 527 44,000  Level Denver Center
01:56PM 37.0917 -106.8131 252° West 457 526 44,000  Level Denver Center
01:57PM 37.0486 -106.9828 252° West 458 527 44,000  Level Denver Center
01:58PM 37.0097 -107.1272 251° West 457 526 44,000  Level Denver Center
01:59PM 36.9658 -107.2953 252° West 456 525 44,000  Level Denver Center
02:00PM 36.9283 -107.4389 252° West 453 521 44,000  Level Denver Center
02:01PM 36.8833 -107.6036 251° West 450 518 44,000  Level Denver Center
02:02PM 36.8439 -107.7444 251° West 449 517 44,000  Level Denver Center
02:03PM 36.8011 -107.9103 252° West 449 517 44,000  Level Denver Center
02:04PM 36.7617 -108.0500 251° West 447 514 44,000  Level Denver Center
02:05PM 36.7311 -108.1931 255° West 447 514 44,000  Level Denver Center
02:06PM 36.6994 -108.3619 257° West 448 516 44,000  Level Denver Center
02:07PM 36.6689 -108.5050 255° West 449 517 44,000  Level Denver Center
02:08PM 36.5808 -108.6414 231° Southwest 454 522 44,000  Level Denver Center
02:09PM 36.5344 -108.7778 247° West 448 516 44,000  Level Denver Center
02:10PM 36.5019 -108.9442 256° West 448 516 44,000  Level Denver Center
02:11PM 36.4747 -109.0861 257° West 445 512 44,000  Level Denver Center
02:12PM 36.4422 -109.2542 257° West 450 518 44,000  Level Denver Center
02:13PM 36.4150 -109.3986 257° West 451 519 44,000  Level Denver Center
02:14PM 36.3814 -109.5683 256° West 455 524 44,000  Level Denver Center
02:15PM 36.3519 -109.7128 256° West 454 522 44,000  Level Denver Center
02:16PM 36.3178 -109.8831 256° West 456 525 44,000  Level Denver Center
02:17PM 36.2883 -110.0289 256° West 456 525 44,000  Level Denver Center
02:18PM 36.2578 -110.1819 256° West 458 527 44,000  Level Denver Center
02:19PM 36.2211 -110.3658 256° West 459 528 44,000  Level Denver Center
02:20PM 36.1878 -110.5206 255° West 462 532 44,000  Level Denver Center
02:21PM 36.1572 -110.6731 256° West 460 529 44,000  Level Denver Center
02:22PM 36.1247 -110.8269 255° West 461 531 44,000  Level Denver Center
02:23PM 36.0931 -110.9792 256° West 459 528 44,000  Level Denver Center
02:24PM 36.0608 -111.1333 256° West 462 532 44,000  Level Denver Center
02:25PM 36.0272 -111.2869 255° West 462 532 44,000  Level Denver Center
02:27PM 35.9886 -111.4722 256° West 463 533 44,000  Level Denver Center
02:28PM 35.9558 -111.6242 255° West 461 531 44,000  Level Denver Center
02:28PM 35.9331 -111.7200 254° West 463 533 44,000  Level Los Angeles Center
02:29PM 35.9008 -111.8728 255° West 461 531 44,000  Level Los Angeles Center
02:30PM 35.8625 -112.0514 255° West 454 522 44,000  Level Los Angeles Center
02:31PM 35.8292 -112.2036 255° West 458 527 44,000  Level Los Angeles Center
02:32PM 35.7950 -112.3556 255° West 460 529 44,000  Level Los Angeles Center
02:33PM 35.7603 -112.5094 255° West 464 534 44,000  Level Los Angeles Center
02:34PM 35.7231 -112.6678 254° West 465 535 44,000  Level Los Angeles Center
02:35PM 35.6900 -112.8214 255° West 463 533 44,000  Level Los Angeles Center
02:37PM 35.6539 -112.9742 254° West 465 535 44,000  Level Los Angeles Center
02:38PM 35.6189 -113.1256 254° West 463 533 44,000  Level Los Angeles Center
02:39PM 35.5769 -113.3094 254° West 464 534 44,000  Level Los Angeles Center
02:40PM 35.5417 -113.4622 254° West 466 536 44,000  Level Los Angeles Center
02:41PM 35.4967 -113.6106 250° West 468 539 44,000  Level Los Angeles Center
02:42PM 35.4325 -113.7514 241° Southwest 471 542 44,000 -480 Level Los Angeles Center
02:43PM 35.3594 -113.8853 236° Southwest 471 542 43,100 -1,260 Descending Los Angeles Center
02:44PM 35.2875 -114.0197 237° Southwest 471 542 41,500 -1,260 Descending Los Angeles Center
02:45PM 35.1972 -114.1819 236° Southwest 478 550 40,300 -960 Descending Los Angeles Center
02:46PM 35.1100 -114.3406 236° Southwest 471 542 39,400 -1,140 Descending Los Angeles Center
02:47PM 35.0497 -114.4781 242° Southwest 463 533 38,000 -1,200 Descending Los Angeles Center
02:48PM 35.0272 -114.6400 260° West 481 554 37,000 -1,020 Descending Los Angeles Center
02:49PM 35.0097 -114.7961 262° West 471 542 35,900 -1,020 Descending Los Angeles Center
02:50PM 34.9900 -114.9556 261° West 472 543 34,900 -1,080 Descending Los Angeles Center
02:51PM 34.9661 -115.1492 261° West 479 551 33,700 -960 Descending Los Angeles Center
02:52PM 34.9492 -115.2736 261° West 420 483 33,000 -360 Descending Los Angeles Center
02:53PM 34.9344 -115.4075 262° West 402 463 33,000  Level Los Angeles Center
02:54PM 34.9161 -115.5539 261° West 401 461 33,000  Level Los Angeles Center
02:55PM 34.8978 -115.7028 262° West 402 463 33,000 -1,020 Level Los Angeles Center
02:56PM 34.8803 -115.8336 261° West 395 455 30,900 -2,040 Descending Los Angeles Center
02:57PM 34.8631 -115.9606 261° West 385 443 28,800 -2,040 Descending Los Angeles Center
02:58PM 34.8467 -116.0847 261° West 378 435 26,800 -2,040 Descending Los Angeles Center
03:00PM 34.8314 -116.2039 261° West 363 418 24,700 -1,380 Descending Los Angeles Center
03:01PM 34.8139 -116.3386 261° West 391 450 24,000 -1,260 Descending Los Angeles Center
03:02PM 34.7936 -116.5022 261° West 410 472 22,200 -1,620 Descending Los Angeles Center
03:03PM 34.7806 -116.6342 263° West 397 457 20,700 -1,080 Descending Los Angeles Center
03:04PM 34.7678 -116.7703 264° West 402 463 20,000 -360 Descending Los Angeles Center
03:05PM 34.7539 -116.9003 263° West 393 452 20,000  Level Los Angeles Center
03:06PM 34.7408 -117.0344 263° West 395 455 20,000  Level Los Angeles Center
03:07PM 34.7264 -117.1669 262° West 396 456 20,000 -480 Level Los Angeles Center
03:08PM 34.7103 -117.3239 263° West 389 448 19,100 -1,260 Descending Los Angeles Center
03:09PM 34.6967 -117.4517 263° West 382 440 17,400 -2,040 Descending Los Angeles Center
03:10PM 34.6836 -117.5794 263° West 379 436 14,900 -2,040 Descending Los Angeles Center
03:11PM 34.6692 -117.7064 262° West 377 434 13,200 -1,020 Descending Los Angeles Center
03:13PM 34.6422 -117.9207 262° West  Level FlightAware Approximate
03:15PM 34.6000 -118.2333 107° East 307 353 9,600  Level Southern California TRACON
03:16PM 34.5667 -118.3333 248° West 291 335 7,900 -960 Descending Southern California TRACON
03:17PM 34.5333 -118.4167 244° Southwest 295 339 7,700 -540 Descending Southern California TRACON
03:18PM 34.4833 -118.4833 228° Southwest 287 330 6,900 -900 Descending Southern California TRACON
03:19PM 34.4500 -118.5833 248° West 294 338 6,000 -480 Descending Southern California TRACON
03:20PM 34.2007 -118.3587 165° South  Level Estimated
03:20PM 34.4167 -118.6667 244° Southwest 251 289 6,000  Level Southern California TRACON
03:21PM 34.2007 -118.3587 107° East  Level Estimated
03:21PM 34.3667 -118.7000 209° Southwest 238 274 6,000  Level Southern California TRACON
03:22PM 34.3000 -118.7000 180° South 222 255 5,400 -1,140 Descending Southern California TRACON
03:23PM 34.2667 -118.6667 140° Southeast 217 250 3,800 -1,140 Descending Southern California TRACON
03:24PM 34.2167 -118.6167 140° Southeast 192 221 3,300 -420 Descending Southern California TRACON
03:25PM 34.2000 -118.5667 112° Southeast 169 194 3,000 -180 Descending Southern California TRACON
03:26PM 34.2000 -118.5167 90° East 170 196 3,000 -360 Level Southern California TRACON
03:27PM 34.2000 -118.4667 90° East 147 169 2,300 -780 Descending Southern California TRACON
03:28PM 34.2000 -118.4167 90° East 142 163 1,500 -840 Descending Southern California TRACON